sensor_id;sensor_type;location;lat;lon;timestamp;P1;durP1;ratioP1;P2;durP2;ratioP2
32491;SDS011;20605;49.742;18.802;2022-11-20T00:01:27;84.80;;;51.58;;
32491;SDS011;20605;49.742;18.802;2022-11-20T00:03:55;84.37;;;51.45;;
32491;SDS011;20605;49.742;18.802;2022-11-20T00:06:26;87.47;;;51.25;;
32491;SDS011;20605;49.742;18.802;2022-11-20T00:08:55;79.60;;;49.27;;
32491;SDS011;20605;49.742;18.802;2022-11-20T00:11:24;97.67;;;56.20;;
32491;SDS011;20605;49.742;18.802;2022-11-20T00:13:53;88.70;;;52.73;;
32491;SDS011;20605;49.742;18.802;2022-11-20T00:16:23;106.92;;;61.10;;
32491;SDS011;20605;49.742;18.802;2022-11-20T00:18:51;177.05;;;90.87;;
32491;SDS011;20605;49.742;18.802;2022-11-20T00:21:19;140.00;;;79.25;;
32491;SDS011;20605;49.742;18.802;2022-11-20T00:23:52;107.00;;;61.60;;
32491;SDS011;20605;49.742;18.802;2022-11-20T00:26:21;101.05;;;59.95;;
32491;SDS011;20605;49.742;18.802;2022-11-20T00:28:52;96.67;;;56.58;;
32491;SDS011;20605;49.742;18.802;2022-11-20T00:31:21;92.12;;;54.18;;
32491;SDS011;20605;49.742;18.802;2022-11-20T00:33:49;87.47;;;51.08;;
32491;SDS011;20605;49.742;18.802;2022-11-20T00:36:16;85.60;;;50.63;;
32491;SDS011;20605;49.742;18.802;2022-11-20T00:38:51;90.83;;;57.75;;
32491;SDS011;20605;49.742;18.802;2022-11-20T00:41:20;88.10;;;53.50;;
32491;SDS011;20605;49.742;18.802;2022-11-20T00:43:47;97.02;;;55.03;;
32491;SDS011;20605;49.742;18.802;2022-11-20T00:46:22;89.75;;;55.15;;
32491;SDS011;20605;49.742;18.802;2022-11-20T00:48:52;84.28;;;49.10;;
32491;SDS011;20605;49.742;18.802;2022-11-20T00:51:19;81.50;;;49.20;;
32491;SDS011;20605;49.742;18.802;2022-11-20T00:53:49;87.62;;;52.35;;
32491;SDS011;20605;49.742;18.802;2022-11-20T00:56:17;90.95;;;52.85;;
32491;SDS011;20605;49.742;18.802;2022-11-20T00:58:46;91.22;;;54.98;;
32491;SDS011;20605;49.742;18.802;2022-11-20T01:01:17;89.77;;;53.78;;
32491;SDS011;20605;49.742;18.802;2022-11-20T01:03:47;88.90;;;52.48;;
32491;SDS011;20605;49.742;18.802;2022-11-20T01:06:19;95.95;;;52.15;;
32491;SDS011;20605;49.742;18.802;2022-11-20T01:08:50;83.40;;;49.50;;
32491;SDS011;20605;49.742;18.802;2022-11-20T01:11:22;84.37;;;49.05;;
32491;SDS011;20605;49.742;18.802;2022-11-20T01:13:51;87.15;;;48.85;;
32491;SDS011;20605;49.742;18.802;2022-11-20T01:16:23;88.15;;;50.80;;
32491;SDS011;20605;49.742;18.802;2022-11-20T01:18:54;79.15;;;47.33;;
32491;SDS011;20605;49.742;18.802;2022-11-20T01:21:32;79.60;;;47.43;;
32491;SDS011;20605;49.742;18.802;2022-11-20T01:24:03;87.00;;;50.08;;
32491;SDS011;20605;49.742;18.802;2022-11-20T01:26:34;87.08;;;50.12;;
32491;SDS011;20605;49.742;18.802;2022-11-20T01:29:03;87.10;;;51.42;;
32491;SDS011;20605;49.742;18.802;2022-11-20T01:31:32;87.50;;;52.08;;
32491;SDS011;20605;49.742;18.802;2022-11-20T01:34:02;92.65;;;54.03;;
32491;SDS011;20605;49.742;18.802;2022-11-20T01:36:32;93.97;;;54.90;;
32491;SDS011;20605;49.742;18.802;2022-11-20T01:39:36;98.72;;;56.53;;
32491;SDS011;20605;49.742;18.802;2022-11-20T01:41:43;106.17;;;60.23;;
32491;SDS011;20605;49.742;18.802;2022-11-20T01:44:57;92.70;;;54.30;;
32491;SDS011;20605;49.742;18.802;2022-11-20T01:52:47;79.77;;;48.28;;
32491;SDS011;20605;49.742;18.802;2022-11-20T01:55:17;79.92;;;48.78;;
32491;SDS011;20605;49.742;18.802;2022-11-20T01:57:57;83.65;;;49.58;;
32491;SDS011;20605;49.742;18.802;2022-11-20T02:00:25;79.42;;;49.38;;
32491;SDS011;20605;49.742;18.802;2022-11-20T02:02:53;77.42;;;46.83;;
32491;SDS011;20605;49.742;18.802;2022-11-20T02:08:04;85.15;;;53.25;;
32491;SDS011;20605;49.742;18.802;2022-11-20T02:10:33;92.20;;;55.08;;
32491;SDS011;20605;49.742;18.802;2022-11-20T02:12:59;91.45;;;54.38;;
32491;SDS011;20605;49.742;18.802;2022-11-20T02:15:44;87.57;;;52.38;;
32491;SDS011;20605;49.742;18.802;2022-11-20T02:18:19;89.28;;;53.20;;
32491;SDS011;20605;49.742;18.802;2022-11-20T02:20:48;82.00;;;49.33;;
32491;SDS011;20605;49.742;18.802;2022-11-20T02:26:06;78.42;;;48.60;;
32491;SDS011;20605;49.742;18.802;2022-11-20T02:31:09;76.57;;;45.78;;
32491;SDS011;20605;49.742;18.802;2022-11-20T02:33:36;73.37;;;43.87;;
32491;SDS011;20605;49.742;18.802;2022-11-20T02:36:02;67.85;;;41.15;;
32491;SDS011;20605;49.742;18.802;2022-11-20T02:38:29;66.37;;;39.73;;
32491;SDS011;20605;49.742;18.802;2022-11-20T02:43:26;61.65;;;38.42;;
32491;SDS011;20605;49.742;18.802;2022-11-20T02:45:52;58.55;;;37.53;;
32491;SDS011;20605;49.742;18.802;2022-11-20T02:48:19;59.35;;;37.70;;
32491;SDS011;20605;49.742;18.802;2022-11-20T02:50:46;57.13;;;35.68;;
32491;SDS011;20605;49.742;18.802;2022-11-20T02:53:12;56.60;;;36.00;;
32491;SDS011;20605;49.742;18.802;2022-11-20T02:55:39;61.98;;;38.35;;
32491;SDS011;20605;49.742;18.802;2022-11-20T02:58:06;58.42;;;37.50;;
32491;SDS011;20605;49.742;18.802;2022-11-20T03:00:39;58.80;;;37.85;;
32491;SDS011;20605;49.742;18.802;2022-11-20T03:03:05;61.15;;;38.08;;
32491;SDS011;20605;49.742;18.802;2022-11-20T03:05:38;62.20;;;38.00;;
32491;SDS011;20605;49.742;18.802;2022-11-20T03:08:04;60.12;;;36.65;;
32491;SDS011;20605;49.742;18.802;2022-11-20T03:10:31;54.42;;;34.23;;
32491;SDS011;20605;49.742;18.802;2022-11-20T03:12:58;49.93;;;32.85;;
32491;SDS011;20605;49.742;18.802;2022-11-20T03:15:25;49.05;;;31.75;;
32491;SDS011;20605;49.742;18.802;2022-11-20T03:17:56;52.55;;;32.25;;
32491;SDS011;20605;49.742;18.802;2022-11-20T03:20:21;53.33;;;34.13;;
32491;SDS011;20605;49.742;18.802;2022-11-20T03:22:48;58.10;;;38.58;;
32491;SDS011;20605;49.742;18.802;2022-11-20T03:25:16;60.23;;;37.33;;
32491;SDS011;20605;49.742;18.802;2022-11-20T03:27:43;56.90;;;36.70;;
32491;SDS011;20605;49.742;18.802;2022-11-20T03:30:11;68.25;;;40.58;;
32491;SDS011;20605;49.742;18.802;2022-11-20T03:32:38;73.12;;;44.10;;
32491;SDS011;20605;49.742;18.802;2022-11-20T03:35:07;77.67;;;48.20;;
32491;SDS011;20605;49.742;18.802;2022-11-20T03:37:34;91.08;;;52.15;;
32491;SDS011;20605;49.742;18.802;2022-11-20T03:40:01;89.30;;;49.77;;
32491;SDS011;20605;49.742;18.802;2022-11-20T03:42:29;88.05;;;49.53;;
32491;SDS011;20605;49.742;18.802;2022-11-20T03:45:11;79.87;;;46.10;;
32491;SDS011;20605;49.742;18.802;2022-11-20T03:47:44;77.55;;;44.67;;
32491;SDS011;20605;49.742;18.802;2022-11-20T03:50:12;73.00;;;44.65;;
32491;SDS011;20605;49.742;18.802;2022-11-20T03:52:39;72.72;;;43.02;;
32491;SDS011;20605;49.742;18.802;2022-11-20T03:55:06;79.90;;;44.45;;
32491;SDS011;20605;49.742;18.802;2022-11-20T03:57:35;78.33;;;45.88;;
32491;SDS011;20605;49.742;18.802;2022-11-20T04:00:02;74.35;;;45.58;;
32491;SDS011;20605;49.742;18.802;2022-11-20T04:02:30;77.90;;;47.62;;
32491;SDS011;20605;49.742;18.802;2022-11-20T04:04:57;74.92;;;46.10;;
32491;SDS011;20605;49.742;18.802;2022-11-20T04:07:25;72.72;;;45.88;;
32491;SDS011;20605;49.742;18.802;2022-11-20T04:09:51;76.47;;;46.28;;
32491;SDS011;20605;49.742;18.802;2022-11-20T04:12:18;72.58;;;44.63;;
32491;SDS011;20605;49.742;18.802;2022-11-20T04:14:44;70.87;;;43.23;;
32491;SDS011;20605;49.742;18.802;2022-11-20T04:17:12;72.42;;;43.02;;
32491;SDS011;20605;49.742;18.802;2022-11-20T04:19:39;70.62;;;43.30;;
32491;SDS011;20605;49.742;18.802;2022-11-20T04:22:07;66.45;;;41.02;;
32491;SDS011;20605;49.742;18.802;2022-11-20T04:24:34;71.00;;;43.02;;
32491;SDS011;20605;49.742;18.802;2022-11-20T04:27:01;64.60;;;41.40;;
32491;SDS011;20605;49.742;18.802;2022-11-20T04:29:28;64.97;;;40.00;;
32491;SDS011;20605;49.742;18.802;2022-11-20T04:31:54;68.00;;;39.98;;
32491;SDS011;20605;49.742;18.802;2022-11-20T04:36:49;69.00;;;42.53;;
32491;SDS011;20605;49.742;18.802;2022-11-20T04:39:18;65.80;;;40.20;;
32491;SDS011;20605;49.742;18.802;2022-11-20T04:41:44;63.80;;;39.63;;
32491;SDS011;20605;49.742;18.802;2022-11-20T04:46:46;77.67;;;46.85;;
32491;SDS011;20605;49.742;18.802;2022-11-20T04:49:13;97.92;;;55.40;;
32491;SDS011;20605;49.742;18.802;2022-11-20T04:51:40;100.02;;;58.45;;
32491;SDS011;20605;49.742;18.802;2022-11-20T04:54:07;82.65;;;48.75;;
32491;SDS011;20605;49.742;18.802;2022-11-20T04:56:34;74.47;;;45.35;;
32491;SDS011;20605;49.742;18.802;2022-11-20T04:59:01;70.85;;;43.70;;
32491;SDS011;20605;49.742;18.802;2022-11-20T05:01:28;76.80;;;44.98;;
32491;SDS011;20605;49.742;18.802;2022-11-20T05:04:01;72.87;;;43.60;;
32491;SDS011;20605;49.742;18.802;2022-11-20T05:06:27;73.83;;;43.70;;
32491;SDS011;20605;49.742;18.802;2022-11-20T05:08:54;75.32;;;45.67;;
32491;SDS011;20605;49.742;18.802;2022-11-20T05:11:21;77.62;;;47.05;;
32491;SDS011;20605;49.742;18.802;2022-11-20T05:14:06;69.92;;;42.90;;
32491;SDS011;20605;49.742;18.802;2022-11-20T05:16:33;63.10;;;41.23;;
32491;SDS011;20605;49.742;18.802;2022-11-20T05:19:08;66.07;;;40.00;;
32491;SDS011;20605;49.742;18.802;2022-11-20T05:21:35;80.75;;;48.55;;
32491;SDS011;20605;49.742;18.802;2022-11-20T05:24:08;79.65;;;49.85;;
32491;SDS011;20605;49.742;18.802;2022-11-20T05:26:34;92.30;;;62.05;;
32491;SDS011;20605;49.742;18.802;2022-11-20T05:29:04;70.67;;;44.88;;
32491;SDS011;20605;49.742;18.802;2022-11-20T05:31:32;67.45;;;45.55;;
32491;SDS011;20605;49.742;18.802;2022-11-20T05:33:59;67.92;;;43.50;;
32491;SDS011;20605;49.742;18.802;2022-11-20T05:36:25;63.55;;;41.42;;
32491;SDS011;20605;49.742;18.802;2022-11-20T05:38:52;90.47;;;48.30;;
32491;SDS011;20605;49.742;18.802;2022-11-20T05:41:21;117.22;;;56.45;;
32491;SDS011;20605;49.742;18.802;2022-11-20T05:43:49;192.45;;;80.30;;
32491;SDS011;20605;49.742;18.802;2022-11-20T05:46:17;131.40;;;62.13;;
32491;SDS011;20605;49.742;18.802;2022-11-20T05:48:46;108.00;;;56.92;;
32491;SDS011;20605;49.742;18.802;2022-11-20T05:51:15;108.67;;;53.63;;
32491;SDS011;20605;49.742;18.802;2022-11-20T05:53:43;105.03;;;54.30;;
32491;SDS011;20605;49.742;18.802;2022-11-20T05:56:16;100.12;;;53.45;;
32491;SDS011;20605;49.742;18.802;2022-11-20T05:58:45;89.72;;;49.55;;
32491;SDS011;20605;49.742;18.802;2022-11-20T06:01:13;74.10;;;43.95;;
32491;SDS011;20605;49.742;18.802;2022-11-20T06:03:46;74.58;;;46.65;;
32491;SDS011;20605;49.742;18.802;2022-11-20T06:06:15;76.20;;;47.40;;
32491;SDS011;20605;49.742;18.802;2022-11-20T06:08:43;83.42;;;48.23;;
32491;SDS011;20605;49.742;18.802;2022-11-20T06:11:11;77.75;;;45.15;;
32491;SDS011;20605;49.742;18.802;2022-11-20T06:13:39;50.33;;;33.45;;
32491;SDS011;20605;49.742;18.802;2022-11-20T06:16:07;46.75;;;30.60;;
32491;SDS011;20605;49.742;18.802;2022-11-20T06:18:35;44.85;;;29.55;;
32491;SDS011;20605;49.742;18.802;2022-11-20T06:21:35;49.03;;;30.02;;
32491;SDS011;20605;49.742;18.802;2022-11-20T06:23:42;47.90;;;29.60;;
32491;SDS011;20605;49.742;18.802;2022-11-20T06:26:10;49.65;;;29.90;;
32491;SDS011;20605;49.742;18.802;2022-11-20T06:28:41;48.78;;;30.52;;
32491;SDS011;20605;49.742;18.802;2022-11-20T06:31:09;51.05;;;31.65;;
32491;SDS011;20605;49.742;18.802;2022-11-20T06:33:39;56.00;;;33.02;;
32491;SDS011;20605;49.742;18.802;2022-11-20T06:36:34;60.17;;;40.92;;
32491;SDS011;20605;49.742;18.802;2022-11-20T06:39:01;54.33;;;32.98;;
32491;SDS011;20605;49.742;18.802;2022-11-20T06:41:28;61.25;;;38.67;;
32491;SDS011;20605;49.742;18.802;2022-11-20T06:43:55;55.35;;;34.23;;
32491;SDS011;20605;49.742;18.802;2022-11-20T06:46:22;51.28;;;33.18;;
32491;SDS011;20605;49.742;18.802;2022-11-20T06:48:49;59.38;;;34.83;;
32491;SDS011;20605;49.742;18.802;2022-11-20T06:51:16;54.42;;;34.03;;
32491;SDS011;20605;49.742;18.802;2022-11-20T06:53:43;57.80;;;35.17;;
32491;SDS011;20605;49.742;18.802;2022-11-20T06:56:10;56.48;;;34.95;;
32491;SDS011;20605;49.742;18.802;2022-11-20T06:58:37;59.90;;;36.00;;
32491;SDS011;20605;49.742;18.802;2022-11-20T07:01:05;74.10;;;41.65;;
32491;SDS011;20605;49.742;18.802;2022-11-20T07:03:35;82.95;;;48.40;;
32491;SDS011;20605;49.742;18.802;2022-11-20T07:06:02;80.32;;;46.98;;
32491;SDS011;20605;49.742;18.802;2022-11-20T07:08:31;74.75;;;44.95;;
32491;SDS011;20605;49.742;18.802;2022-11-20T07:10:59;69.35;;;43.13;;
32491;SDS011;20605;49.742;18.802;2022-11-20T07:13:28;70.12;;;42.38;;
32491;SDS011;20605;49.742;18.802;2022-11-20T07:15:58;68.47;;;43.48;;
32491;SDS011;20605;49.742;18.802;2022-11-20T07:18:28;72.08;;;45.25;;
32491;SDS011;20605;49.742;18.802;2022-11-20T07:21:00;85.38;;;52.33;;
32491;SDS011;20605;49.742;18.802;2022-11-20T07:23:28;123.53;;;72.42;;
32491;SDS011;20605;49.742;18.802;2022-11-20T07:25:56;155.85;;;87.02;;
32491;SDS011;20605;49.742;18.802;2022-11-20T07:28:23;128.85;;;73.47;;
32491;SDS011;20605;49.742;18.802;2022-11-20T07:30:50;125.55;;;74.27;;
32491;SDS011;20605;49.742;18.802;2022-11-20T07:35:47;94.17;;;55.95;;
32491;SDS011;20605;49.742;18.802;2022-11-20T07:38:14;89.50;;;55.95;;
32491;SDS011;20605;49.742;18.802;2022-11-20T07:40:41;77.27;;;46.98;;
32491;SDS011;20605;49.742;18.802;2022-11-20T07:43:17;68.45;;;42.73;;
32491;SDS011;20605;49.742;18.802;2022-11-20T07:49:32;89.67;;;48.70;;
32491;SDS011;20605;49.742;18.802;2022-11-20T07:59:10;79.85;;;50.30;;
32491;SDS011;20605;49.742;18.802;2022-11-20T08:02:12;109.32;;;66.35;;
32491;SDS011;20605;49.742;18.802;2022-11-20T08:05:20;101.85;;;61.00;;
32491;SDS011;20605;49.742;18.802;2022-11-20T08:11:08;92.12;;;55.38;;
32491;SDS011;20605;49.742;18.802;2022-11-20T08:21:18;78.85;;;51.63;;
32491;SDS011;20605;49.742;18.802;2022-11-20T08:31:29;68.05;;;43.98;;
32491;SDS011;20605;49.742;18.802;2022-11-20T08:33:56;63.23;;;42.43;;
32491;SDS011;20605;49.742;18.802;2022-11-20T08:36:22;65.22;;;42.60;;
32491;SDS011;20605;49.742;18.802;2022-11-20T08:38:50;65.60;;;42.70;;
32491;SDS011;20605;49.742;18.802;2022-11-20T08:41:19;113.42;;;65.75;;
32491;SDS011;20605;49.742;18.802;2022-11-20T08:43:50;69.80;;;43.85;;
32491;SDS011;20605;49.742;18.802;2022-11-20T08:46:19;77.53;;;48.63;;
32491;SDS011;20605;49.742;18.802;2022-11-20T08:48:46;90.40;;;54.20;;
32491;SDS011;20605;49.742;18.802;2022-11-20T08:51:13;133.67;;;70.50;;
32491;SDS011;20605;49.742;18.802;2022-11-20T08:53:42;100.20;;;61.85;;
32491;SDS011;20605;49.742;18.802;2022-11-20T08:56:08;213.05;;;105.83;;
32491;SDS011;20605;49.742;18.802;2022-11-20T08:58:36;131.85;;;76.60;;
32491;SDS011;20605;49.742;18.802;2022-11-20T09:01:03;98.25;;;62.25;;
32491;SDS011;20605;49.742;18.802;2022-11-20T09:03:30;157.40;;;96.80;;
32491;SDS011;20605;49.742;18.802;2022-11-20T09:05:57;87.22;;;54.77;;
32491;SDS011;20605;49.742;18.802;2022-11-20T09:08:28;76.02;;;47.05;;
32491;SDS011;20605;49.742;18.802;2022-11-20T09:10:56;68.70;;;44.42;;
32491;SDS011;20605;49.742;18.802;2022-11-20T09:13:24;86.45;;;51.40;;
32491;SDS011;20605;49.742;18.802;2022-11-20T09:15:56;117.65;;;60.75;;
32491;SDS011;20605;49.742;18.802;2022-11-20T09:18:26;79.75;;;46.48;;
32491;SDS011;20605;49.742;18.802;2022-11-20T09:20:57;104.12;;;55.25;;
32491;SDS011;20605;49.742;18.802;2022-11-20T09:23:25;172.22;;;76.92;;
32491;SDS011;20605;49.742;18.802;2022-11-20T09:25:52;68.60;;;42.75;;
32491;SDS011;20605;49.742;18.802;2022-11-20T09:28:21;56.02;;;37.28;;
32491;SDS011;20605;49.742;18.802;2022-11-20T09:30:48;164.28;;;78.17;;
32491;SDS011;20605;49.742;18.802;2022-11-20T09:33:14;67.95;;;42.85;;
32491;SDS011;20605;49.742;18.802;2022-11-20T09:35:41;86.53;;;52.90;;
32491;SDS011;20605;49.742;18.802;2022-11-20T09:38:09;71.10;;;45.25;;
32491;SDS011;20605;49.742;18.802;2022-11-20T09:40:43;65.97;;;43.90;;
32491;SDS011;20605;49.742;18.802;2022-11-20T09:43:26;71.37;;;45.60;;
32491;SDS011;20605;49.742;18.802;2022-11-20T09:46:16;69.70;;;43.70;;
32491;SDS011;20605;49.742;18.802;2022-11-20T09:49:04;76.87;;;48.63;;
32491;SDS011;20605;49.742;18.802;2022-11-20T09:54:21;96.72;;;63.92;;
32491;SDS011;20605;49.742;18.802;2022-11-20T09:56:59;102.17;;;64.03;;
32491;SDS011;20605;49.742;18.802;2022-11-20T09:59:43;88.80;;;59.50;;
32491;SDS011;20605;49.742;18.802;2022-11-20T10:02:25;93.70;;;56.77;;
32491;SDS011;20605;49.742;18.802;2022-11-20T10:05:04;82.30;;;52.15;;
32491;SDS011;20605;49.742;18.802;2022-11-20T10:07:44;74.87;;;49.05;;
32491;SDS011;20605;49.742;18.802;2022-11-20T10:27:30;83.20;;;55.85;;
32491;SDS011;20605;49.742;18.802;2022-11-20T10:32:36;83.78;;;52.90;;
32491;SDS011;20605;49.742;18.802;2022-11-20T10:38:07;79.55;;;50.52;;
32491;SDS011;20605;49.742;18.802;2022-11-20T10:40:39;84.10;;;52.67;;
32491;SDS011;20605;49.742;18.802;2022-11-20T10:46:00;104.00;;;62.35;;
32491;SDS011;20605;49.742;18.802;2022-11-20T10:48:33;87.97;;;53.75;;
32491;SDS011;20605;49.742;18.802;2022-11-20T11:00:09;91.10;;;53.25;;
32491;SDS011;20605;49.742;18.802;2022-11-20T11:02:41;87.53;;;53.58;;
32491;SDS011;20605;49.742;18.802;2022-11-20T11:08:16;246.95;;;95.20;;
32491;SDS011;20605;49.742;18.802;2022-11-20T11:13:28;335.48;;;180.40;;
32491;SDS011;20605;49.742;18.802;2022-11-20T11:15:56;716.83;;;290.77;;
32491;SDS011;20605;49.742;18.802;2022-11-20T11:18:30;593.23;;;211.32;;
32491;SDS011;20605;49.742;18.802;2022-11-20T11:21:02;254.28;;;100.53;;
32491;SDS011;20605;49.742;18.802;2022-11-20T11:23:36;166.37;;;82.53;;
32491;SDS011;20605;49.742;18.802;2022-11-20T11:26:18;485.13;;;187.95;;
32491;SDS011;20605;49.742;18.802;2022-11-20T11:29:20;283.17;;;119.08;;
32491;SDS011;20605;49.742;18.802;2022-11-20T11:31:25;204.05;;;90.83;;
32491;SDS011;20605;49.742;18.802;2022-11-20T11:36:41;134.40;;;70.22;;
32491;SDS011;20605;49.742;18.802;2022-11-20T11:39:18;97.40;;;57.58;;
32491;SDS011;20605;49.742;18.802;2022-11-20T11:41:47;107.97;;;62.25;;
32491;SDS011;20605;49.742;18.802;2022-11-20T11:44:19;314.48;;;144.02;;
32491;SDS011;20605;49.742;18.802;2022-11-20T11:47:24;372.77;;;167.57;;
32491;SDS011;20605;49.742;18.802;2022-11-20T11:50:28;203.05;;;99.50;;
32491;SDS011;20605;49.742;18.802;2022-11-20T11:55:54;182.20;;;97.75;;
32491;SDS011;20605;49.742;18.802;2022-11-20T12:07:11;63.35;;;40.95;;
32491;SDS011;20605;49.742;18.802;2022-11-20T12:09:49;73.10;;;45.03;;
32491;SDS011;20605;49.742;18.802;2022-11-20T12:12:20;80.12;;;47.98;;
32491;SDS011;20605;49.742;18.802;2022-11-20T12:14:50;74.22;;;44.73;;
32491;SDS011;20605;49.742;18.802;2022-11-20T12:17:20;68.95;;;44.00;;
32491;SDS011;20605;49.742;18.802;2022-11-20T12:19:50;76.35;;;48.68;;
32491;SDS011;20605;49.742;18.802;2022-11-20T12:30:50;65.90;;;39.58;;
32491;SDS011;20605;49.742;18.802;2022-11-20T12:33:34;72.70;;;42.75;;
32491;SDS011;20605;49.742;18.802;2022-11-20T12:51:03;67.55;;;38.90;;
32491;SDS011;20605;49.742;18.802;2022-11-20T12:56:48;49.55;;;30.77;;
32491;SDS011;20605;49.742;18.802;2022-11-20T13:08:39;47.33;;;30.85;;
32491;SDS011;20605;49.742;18.802;2022-11-20T13:14:18;60.63;;;38.85;;
32491;SDS011;20605;49.742;18.802;2022-11-20T13:19:30;38.65;;;24.10;;
32491;SDS011;20605;49.742;18.802;2022-11-20T13:21:57;41.55;;;25.77;;
32491;SDS011;20605;49.742;18.802;2022-11-20T13:24:25;40.90;;;27.22;;
32491;SDS011;20605;49.742;18.802;2022-11-20T13:27:01;92.20;;;57.80;;
32491;SDS011;20605;49.742;18.802;2022-11-20T13:29:35;90.25;;;55.48;;
32491;SDS011;20605;49.742;18.802;2022-11-20T13:32:12;74.32;;;45.33;;
32491;SDS011;20605;49.742;18.802;2022-11-20T13:34:54;43.48;;;28.30;;
32491;SDS011;20605;49.742;18.802;2022-11-20T13:37:34;42.25;;;28.02;;
32491;SDS011;20605;49.742;18.802;2022-11-20T13:42:46;55.95;;;40.17;;
32491;SDS011;20605;49.742;18.802;2022-11-20T13:45:35;52.67;;;32.83;;
32491;SDS011;20605;49.742;18.802;2022-11-20T13:48:19;71.70;;;35.17;;
32491;SDS011;20605;49.742;18.802;2022-11-20T13:51:06;53.35;;;29.67;;
32491;SDS011;20605;49.742;18.802;2022-11-20T13:59:58;58.78;;;26.12;;
32491;SDS011;20605;49.742;18.802;2022-11-20T14:02:50;36.15;;;22.00;;
32491;SDS011;20605;49.742;18.802;2022-11-20T14:05:37;53.73;;;27.80;;
32491;SDS011;20605;49.742;18.802;2022-11-20T14:08:13;42.48;;;23.98;;
32491;SDS011;20605;49.742;18.802;2022-11-20T14:10:42;46.45;;;23.50;;
32491;SDS011;20605;49.742;18.802;2022-11-20T14:13:15;53.30;;;26.65;;
32491;SDS011;20605;49.742;18.802;2022-11-20T14:15:45;66.02;;;34.43;;
32491;SDS011;20605;49.742;18.802;2022-11-20T14:18:14;78.62;;;39.53;;
32491;SDS011;20605;49.742;18.802;2022-11-20T14:20:47;78.20;;;38.65;;
32491;SDS011;20605;49.742;18.802;2022-11-20T14:23:23;120.82;;;55.12;;
32491;SDS011;20605;49.742;18.802;2022-11-20T14:25:53;101.25;;;46.63;;
32491;SDS011;20605;49.742;18.802;2022-11-20T14:28:27;62.90;;;31.10;;
32491;SDS011;20605;49.742;18.802;2022-11-20T14:30:56;64.32;;;34.50;;
32491;SDS011;20605;49.742;18.802;2022-11-20T14:33:25;53.98;;;28.90;;
32491;SDS011;20605;49.742;18.802;2022-11-20T14:35:53;47.83;;;28.83;;
32491;SDS011;20605;49.742;18.802;2022-11-20T14:38:26;55.63;;;32.25;;
32491;SDS011;20605;49.742;18.802;2022-11-20T14:41:05;50.83;;;28.80;;
32491;SDS011;20605;49.742;18.802;2022-11-20T14:43:47;58.45;;;35.78;;
32491;SDS011;20605;49.742;18.802;2022-11-20T14:50:12;44.38;;;24.00;;
32491;SDS011;20605;49.742;18.802;2022-11-20T14:52:59;69.27;;;32.80;;
32491;SDS011;20605;49.742;18.802;2022-11-20T14:55:28;61.88;;;33.35;;
32491;SDS011;20605;49.742;18.802;2022-11-20T14:58:04;168.95;;;77.78;;
32491;SDS011;20605;49.742;18.802;2022-11-20T15:00:34;63.85;;;34.50;;
32491;SDS011;20605;49.742;18.802;2022-11-20T15:03:13;170.20;;;71.55;;
32491;SDS011;20605;49.742;18.802;2022-11-20T15:05:49;57.50;;;32.78;;
32491;SDS011;20605;49.742;18.802;2022-11-20T15:08:15;60.20;;;36.40;;
32491;SDS011;20605;49.742;18.802;2022-11-20T15:10:46;46.13;;;27.80;;
32491;SDS011;20605;49.742;18.802;2022-11-20T15:13:26;46.65;;;28.40;;
32491;SDS011;20605;49.742;18.802;2022-11-20T15:16:08;58.80;;;35.30;;
32491;SDS011;20605;49.742;18.802;2022-11-20T15:18:44;51.65;;;31.40;;
32491;SDS011;20605;49.742;18.802;2022-11-20T15:21:15;72.82;;;51.28;;
32491;SDS011;20605;49.742;18.802;2022-11-20T15:23:44;49.08;;;29.82;;
32491;SDS011;20605;49.742;18.802;2022-11-20T15:26:11;79.60;;;42.78;;
32491;SDS011;20605;49.742;18.802;2022-11-20T15:28:44;60.15;;;35.70;;
32491;SDS011;20605;49.742;18.802;2022-11-20T15:31:14;55.00;;;32.15;;
32491;SDS011;20605;49.742;18.802;2022-11-20T15:33:44;48.35;;;29.20;;
32491;SDS011;20605;49.742;18.802;2022-11-20T15:36:11;178.15;;;87.20;;
32491;SDS011;20605;49.742;18.802;2022-11-20T15:38:38;141.95;;;107.40;;
32491;SDS011;20605;49.742;18.802;2022-11-20T15:41:04;100.42;;;65.30;;
32491;SDS011;20605;49.742;18.802;2022-11-20T15:43:32;111.05;;;85.22;;
32491;SDS011;20605;49.742;18.802;2022-11-20T15:46:03;55.00;;;35.80;;
32491;SDS011;20605;49.742;18.802;2022-11-20T15:48:38;61.53;;;37.15;;
32491;SDS011;20605;49.742;18.802;2022-11-20T15:51:36;57.85;;;34.35;;
32491;SDS011;20605;49.742;18.802;2022-11-20T15:53:49;59.85;;;38.73;;
32491;SDS011;20605;49.742;18.802;2022-11-20T15:56:16;54.73;;;34.60;;
32491;SDS011;20605;49.742;18.802;2022-11-20T15:58:43;80.40;;;39.67;;
32491;SDS011;20605;49.742;18.802;2022-11-20T16:01:16;185.82;;;88.72;;
32491;SDS011;20605;49.742;18.802;2022-11-20T16:03:41;347.10;;;164.13;;
32491;SDS011;20605;49.742;18.802;2022-11-20T16:06:08;218.50;;;107.80;;
32491;SDS011;20605;49.742;18.802;2022-11-20T16:08:34;258.00;;;132.27;;
32491;SDS011;20605;49.742;18.802;2022-11-20T16:11:01;82.65;;;48.78;;
32491;SDS011;20605;49.742;18.802;2022-11-20T16:13:30;64.87;;;36.88;;
32491;SDS011;20605;49.742;18.802;2022-11-20T16:18:52;92.65;;;55.00;;
32491;SDS011;20605;49.742;18.802;2022-11-20T16:21:19;95.67;;;62.35;;
32491;SDS011;20605;49.742;18.802;2022-11-20T16:23:46;101.80;;;61.83;;
32491;SDS011;20605;49.742;18.802;2022-11-20T16:26:13;180.60;;;76.65;;
32491;SDS011;20605;49.742;18.802;2022-11-20T16:28:46;138.00;;;86.80;;
32491;SDS011;20605;49.742;18.802;2022-11-20T16:31:13;86.82;;;54.70;;
32491;SDS011;20605;49.742;18.802;2022-11-20T16:33:43;79.35;;;42.05;;
32491;SDS011;20605;49.742;18.802;2022-11-20T16:36:18;396.93;;;149.93;;
32491;SDS011;20605;49.742;18.802;2022-11-20T16:38:51;411.88;;;158.45;;
32491;SDS011;20605;49.742;18.802;2022-11-20T16:41:19;442.60;;;171.20;;
32491;SDS011;20605;49.742;18.802;2022-11-20T16:43:48;471.85;;;183.75;;
32491;SDS011;20605;49.742;18.802;2022-11-20T16:46:19;198.35;;;84.52;;
32491;SDS011;20605;49.742;18.802;2022-11-20T16:48:55;291.85;;;115.70;;
32491;SDS011;20605;49.742;18.802;2022-11-20T16:51:28;313.12;;;141.40;;
32491;SDS011;20605;49.742;18.802;2022-11-20T16:54:14;190.15;;;86.80;;
32491;SDS011;20605;49.742;18.802;2022-11-20T16:56:44;263.07;;;102.97;;
32491;SDS011;20605;49.742;18.802;2022-11-20T16:59:12;256.07;;;99.35;;
32491;SDS011;20605;49.742;18.802;2022-11-20T17:01:39;195.92;;;84.85;;
32491;SDS011;20605;49.742;18.802;2022-11-20T17:04:07;203.58;;;103.60;;
32491;SDS011;20605;49.742;18.802;2022-11-20T17:06:35;182.40;;;98.97;;
32491;SDS011;20605;49.742;18.802;2022-11-20T17:09:05;116.40;;;74.10;;
32491;SDS011;20605;49.742;18.802;2022-11-20T17:11:34;105.60;;;67.30;;
32491;SDS011;20605;49.742;18.802;2022-11-20T17:14:01;88.95;;;57.62;;
32491;SDS011;20605;49.742;18.802;2022-11-20T17:16:28;98.80;;;62.05;;